Estación Meteorológica Peña el Pijo (Robertgarden) [ 11/30/23 12:59:59 CET ]

Fecha Hora Presion(HPa) Temp (°C) Humedad % Rocio (°C) Viento ( m/s) Direccion Lluvia 1Hora(mm) Lluvia 24H(mm) LLuvia Total(mm)
2011-Aug-09 01:01:14 1016.500 21.1 74 16.2         118.62
2011-Aug-09 02:01:15 1016.600 20.4 76 16.0         118.62
2011-Aug-09 03:01:16 1016.200 19.7 78 15.8         118.62
2011-Aug-09 04:01:16 1016.200 17.8 81 14.5         118.62
2011-Aug-09 05:01:16 1016.100 16.5 82 13.4         118.62
2011-Aug-09 06:01:15 1016.100 15.6 84 12.9         118.62
2011-Aug-09 07:01:14 1016.100 14.9 86 12.6         118.62
2011-Aug-09 08:01:12 1016.300 14.8 87 12.7         118.62
2011-Aug-09 09:01:15 1016.600 20.1 77 16.0         118.62
2011-Aug-09 10:01:15 1017.000 25.2 62 17.4         118.62
2011-Aug-09 11:01:12 1017.000 28.6 49 16.9         118.62
2011-Aug-09 12:01:15 1017.100 30.4 44 16.8         118.62
2011-Aug-09 13:01:16 1016.900 31.1 41 16.3         118.62
2011-Aug-09 14:01:15 1016.600 33.2 38 16.9         118.62
2011-Aug-09 15:01:15 1016.500 33.1 36 15.9         118.62
2011-Aug-09 16:01:15 1015.800 34.4 34 16.2         118.62
2011-Aug-09 17:01:37 1015.600 35.4 32 16.1         118.62
2011-Aug-09 18:01:37 1015.300 32.4 37 15.7         118.62
2011-Aug-09 19:01:35 1015.400 30.7 38 14.7         118.62
2011-Aug-09 20:01:44 1015.700 27.6 45 14.5         118.62
2011-Aug-09 21:01:17 1016.000 25.3 50 14.2         118.62
2011-Aug-09 22:01:15 1016.600 22.9 55 13.3         118.62
2011-Aug-09 23:01:21 1017.200 21.3 60 13.3         118.62

Temperatura Máxima:35°    Temperatura Mínima:14°
Presión Máxima:1017.200 Hpa    Presión Mínima:1015.300 Hpa


Volver